sensor_id;sensor_type;location;lat;lon;timestamp;P1;durP1;ratioP1;P2;durP2;ratioP2
40555;SDS011;26250;45.422;11.100;2022-12-10T07:36:49;48.38;;;42.95;;
40555;SDS011;26250;45.422;11.100;2022-12-10T07:39:16;50.95;;;45.50;;
40555;SDS011;26250;45.422;11.100;2022-12-10T07:41:49;55.45;;;43.90;;
40555;SDS011;26250;45.422;11.100;2022-12-10T07:44:18;53.88;;;43.42;;
40555;SDS011;26250;45.422;11.100;2022-12-10T07:46:50;60.15;;;45.38;;
40555;SDS011;26250;45.422;11.100;2022-12-10T07:49:18;56.35;;;46.90;;
40555;SDS011;26250;45.422;11.100;2022-12-10T07:51:45;60.63;;;44.60;;
40555;SDS011;26250;45.422;11.100;2022-12-10T07:54:13;52.55;;;44.28;;
40555;SDS011;26250;45.422;11.100;2022-12-10T07:56:41;49.03;;;42.22;;
40555;SDS011;26250;45.422;11.100;2022-12-10T07:59:11;59.28;;;46.53;;
40555;SDS011;26250;45.422;11.100;2022-12-10T08:01:38;51.05;;;44.25;;
40555;SDS011;26250;45.422;11.100;2022-12-10T08:04:05;58.92;;;45.72;;
40555;SDS011;26250;45.422;11.100;2022-12-10T08:06:32;58.13;;;44.95;;
40555;SDS011;26250;45.422;11.100;2022-12-10T08:08:59;67.47;;;48.50;;
40555;SDS011;26250;45.422;11.100;2022-12-10T08:11:26;67.50;;;47.22;;
40555;SDS011;26250;45.422;11.100;2022-12-10T08:13:54;59.97;;;48.47;;
40555;SDS011;26250;45.422;11.100;2022-12-10T08:16:23;68.22;;;49.70;;
40555;SDS011;26250;45.422;11.100;2022-12-10T08:18:54;54.70;;;46.08;;
40555;SDS011;26250;45.422;11.100;2022-12-10T08:21:24;62.47;;;46.85;;
40555;SDS011;26250;45.422;11.100;2022-12-10T08:23:52;65.32;;;48.92;;
40555;SDS011;26250;45.422;11.100;2022-12-10T08:26:21;62.80;;;48.17;;
40555;SDS011;26250;45.422;11.100;2022-12-10T08:28:52;58.15;;;47.65;;
40555;SDS011;26250;45.422;11.100;2022-12-10T08:31:20;66.45;;;49.22;;
40555;SDS011;26250;45.422;11.100;2022-12-10T08:33:48;55.72;;;46.53;;
40555;SDS011;26250;45.422;11.100;2022-12-10T08:36:15;59.00;;;47.20;;
40555;SDS011;26250;45.422;11.100;2022-12-10T08:38:44;55.92;;;46.50;;
40555;SDS011;26250;45.422;11.100;2022-12-10T08:41:15;57.60;;;47.15;;
40555;SDS011;26250;45.422;11.100;2022-12-10T08:43:45;64.97;;;44.95;;
40555;SDS011;26250;45.422;11.100;2022-12-10T08:46:13;57.75;;;48.30;;
40555;SDS011;26250;45.422;11.100;2022-12-10T08:48:41;65.57;;;48.47;;
40555;SDS011;26250;45.422;11.100;2022-12-10T08:51:09;57.10;;;47.00;;
40555;SDS011;26250;45.422;11.100;2022-12-10T08:53:39;57.38;;;48.70;;
40555;SDS011;26250;45.422;11.100;2022-12-10T08:56:06;59.72;;;45.72;;
40555;SDS011;26250;45.422;11.100;2022-12-10T08:58:34;62.05;;;46.28;;
40555;SDS011;26250;45.422;11.100;2022-12-10T09:01:05;55.92;;;46.47;;
40555;SDS011;26250;45.422;11.100;2022-12-10T09:03:37;57.30;;;45.58;;
40555;SDS011;26250;45.422;11.100;2022-12-10T09:06:05;70.30;;;46.65;;
40555;SDS011;26250;45.422;11.100;2022-12-10T09:08:34;58.25;;;47.33;;
40555;SDS011;26250;45.422;11.100;2022-12-10T09:11:05;54.45;;;46.00;;
40555;SDS011;26250;45.422;11.100;2022-12-10T09:13:43;57.58;;;49.33;;
40555;SDS011;26250;45.422;11.100;2022-12-10T09:16:10;66.28;;;49.20;;
40555;SDS011;26250;45.422;11.100;2022-12-10T09:18:38;62.33;;;48.83;;
40555;SDS011;26250;45.422;11.100;2022-12-10T09:21:06;70.13;;;54.05;;
40555;SDS011;26250;45.422;11.100;2022-12-10T09:23:34;69.43;;;53.03;;
40555;SDS011;26250;45.422;11.100;2022-12-10T09:26:04;67.28;;;52.75;;
40555;SDS011;26250;45.422;11.100;2022-12-10T09:28:32;60.17;;;51.22;;
40555;SDS011;26250;45.422;11.100;2022-12-10T09:31:00;61.72;;;50.03;;
40555;SDS011;26250;45.422;11.100;2022-12-10T09:33:27;61.33;;;50.55;;
40555;SDS011;26250;45.422;11.100;2022-12-10T09:35:54;70.45;;;53.15;;
40555;SDS011;26250;45.422;11.100;2022-12-10T09:38:22;72.97;;;53.60;;
40555;SDS011;26250;45.422;11.100;2022-12-10T09:43:59;65.57;;;53.10;;
40555;SDS011;26250;45.422;11.100;2022-12-10T09:46:52;61.22;;;48.15;;
40555;SDS011;26250;45.422;11.100;2022-12-10T09:52:02;56.58;;;46.88;;
40555;SDS011;26250;45.422;11.100;2022-12-10T09:54:32;57.75;;;47.13;;
40555;SDS011;26250;45.422;11.100;2022-12-10T09:57:03;54.45;;;47.00;;
40555;SDS011;26250;45.422;11.100;2022-12-10T10:02:16;56.75;;;46.03;;
40555;SDS011;26250;45.422;11.100;2022-12-10T10:04:52;52.22;;;42.72;;
40555;SDS011;26250;45.422;11.100;2022-12-10T10:07:44;53.85;;;40.40;;
40555;SDS011;26250;45.422;11.100;2022-12-10T10:10:33;57.33;;;44.85;;
40555;SDS011;26250;45.422;11.100;2022-12-10T10:15:51;55.63;;;43.38;;
40555;SDS011;26250;45.422;11.100;2022-12-10T10:18:23;65.65;;;46.78;;
40555;SDS011;26250;45.422;11.100;2022-12-10T10:21:04;68.90;;;48.28;;
40555;SDS011;26250;45.422;11.100;2022-12-10T10:23:42;61.97;;;48.80;;
40555;SDS011;26250;45.422;11.100;2022-12-10T10:26:11;55.72;;;48.08;;
40555;SDS011;26250;45.422;11.100;2022-12-10T10:28:38;63.38;;;49.47;;
40555;SDS011;26250;45.422;11.100;2022-12-10T10:31:16;64.28;;;49.10;;
40555;SDS011;26250;45.422;11.100;2022-12-10T10:33:50;54.15;;;46.28;;
40555;SDS011;26250;45.422;11.100;2022-12-10T10:36:24;66.60;;;49.08;;
40555;SDS011;26250;45.422;11.100;2022-12-10T10:38:56;56.10;;;47.03;;
40555;SDS011;26250;45.422;11.100;2022-12-10T10:41:24;63.63;;;48.33;;
40555;SDS011;26250;45.422;11.100;2022-12-10T10:43:54;57.63;;;46.70;;
40555;SDS011;26250;45.422;11.100;2022-12-10T10:46:28;59.78;;;47.25;;
40555;SDS011;26250;45.422;11.100;2022-12-10T10:49:11;56.95;;;46.17;;
40555;SDS011;26250;45.422;11.100;2022-12-10T10:51:42;59.80;;;44.45;;
40555;SDS011;26250;45.422;11.100;2022-12-10T10:54:11;57.05;;;43.67;;
40555;SDS011;26250;45.422;11.100;2022-12-10T10:56:41;59.83;;;42.08;;
40555;SDS011;26250;45.422;11.100;2022-12-10T11:01:47;50.20;;;41.72;;
40555;SDS011;26250;45.422;11.100;2022-12-10T11:04:21;43.53;;;38.72;;
40555;SDS011;26250;45.422;11.100;2022-12-10T11:06:51;47.35;;;38.65;;
40555;SDS011;26250;45.422;11.100;2022-12-10T11:09:29;46.65;;;34.88;;
40555;SDS011;26250;45.422;11.100;2022-12-10T11:12:02;36.58;;;32.63;;
40555;SDS011;26250;45.422;11.100;2022-12-10T11:14:40;40.15;;;30.48;;
40555;SDS011;26250;45.422;11.100;2022-12-10T11:19:42;34.47;;;29.80;;
40555;SDS011;26250;45.422;11.100;2022-12-10T11:22:28;35.22;;;30.17;;
40555;SDS011;26250;45.422;11.100;2022-12-10T11:24:57;36.92;;;30.42;;
40555;SDS011;26250;45.422;11.100;2022-12-10T11:30:26;31.48;;;27.50;;
40555;SDS011;26250;45.422;11.100;2022-12-10T11:32:58;33.58;;;24.83;;
40555;SDS011;26250;45.422;11.100;2022-12-10T11:38:49;29.92;;;25.08;;
40555;SDS011;26250;45.422;11.100;2022-12-10T11:41:38;30.17;;;26.98;;
40555;SDS011;26250;45.422;11.100;2022-12-10T11:44:39;38.65;;;27.85;;
40555;SDS011;26250;45.422;11.100;2022-12-10T11:47:25;34.95;;;31.23;;
40555;SDS011;26250;45.422;11.100;2022-12-10T11:59:02;41.58;;;37.13;;
40555;SDS011;26250;45.422;11.100;2022-12-10T12:06:54;43.10;;;38.45;;
40555;SDS011;26250;45.422;11.100;2022-12-10T12:10:01;49.78;;;37.72;;
40555;SDS011;26250;45.422;11.100;2022-12-10T12:18:01;42.40;;;37.88;;
40555;SDS011;26250;45.422;11.100;2022-12-10T12:20:34;52.30;;;40.17;;
40555;SDS011;26250;45.422;11.100;2022-12-10T12:23:11;52.35;;;39.47;;
40555;SDS011;26250;45.422;11.100;2022-12-10T12:25:55;51.90;;;39.83;;
40555;SDS011;26250;45.422;11.100;2022-12-10T12:28:34;44.25;;;39.03;;
40555;SDS011;26250;45.422;11.100;2022-12-10T12:31:06;46.70;;;40.92;;
40555;SDS011;26250;45.422;11.100;2022-12-10T12:33:42;50.42;;;40.33;;
40555;SDS011;26250;45.422;11.100;2022-12-10T12:36:22;45.28;;;40.35;;
40555;SDS011;26250;45.422;11.100;2022-12-10T12:39:15;46.30;;;38.28;;
40555;SDS011;26250;45.422;11.100;2022-12-10T12:42:01;47.47;;;39.58;;
40555;SDS011;26250;45.422;11.100;2022-12-10T12:47:41;47.17;;;39.13;;
40555;SDS011;26250;45.422;11.100;2022-12-10T12:53:05;43.55;;;38.47;;
40555;SDS011;26250;45.422;11.100;2022-12-10T12:55:48;44.95;;;39.85;;
40555;SDS011;26250;45.422;11.100;2022-12-10T12:58:39;45.33;;;38.08;;
40555;SDS011;26250;45.422;11.100;2022-12-10T13:01:28;43.75;;;39.13;;
40555;SDS011;26250;45.422;11.100;2022-12-10T13:03:57;42.03;;;37.58;;
40555;SDS011;26250;45.422;11.100;2022-12-10T13:11:39;44.75;;;37.75;;
40555;SDS011;26250;45.422;11.100;2022-12-10T13:19:16;45.53;;;36.85;;
40555;SDS011;26250;45.422;11.100;2022-12-10T13:27:28;23.08;;;18.95;;
40555;SDS011;26250;45.422;11.100;2022-12-10T13:37:37;17.27;;;15.48;;
40555;SDS011;26250;45.422;11.100;2022-12-10T19:24:51;70.75;;;53.05;;
40555;SDS011;26250;45.422;11.100;2022-12-10T19:27:18;75.75;;;54.42;;
40555;SDS011;26250;45.422;11.100;2022-12-10T19:29:45;81.43;;;54.75;;
40555;SDS011;26250;45.422;11.100;2022-12-10T19:32:11;79.05;;;54.97;;
40555;SDS011;26250;45.422;11.100;2022-12-10T19:34:38;71.05;;;54.03;;
40555;SDS011;26250;45.422;11.100;2022-12-10T19:37:07;78.32;;;56.90;;
40555;SDS011;26250;45.422;11.100;2022-12-10T19:39:35;67.68;;;55.38;;
40555;SDS011;26250;45.422;11.100;2022-12-10T19:42:03;73.22;;;54.47;;
40555;SDS011;26250;45.422;11.100;2022-12-10T19:44:30;85.22;;;53.95;;
40555;SDS011;26250;45.422;11.100;2022-12-10T19:46:57;78.93;;;54.53;;
40555;SDS011;26250;45.422;11.100;2022-12-10T19:49:27;75.65;;;55.13;;
40555;SDS011;26250;45.422;11.100;2022-12-10T19:51:54;75.55;;;55.42;;
40555;SDS011;26250;45.422;11.100;2022-12-10T19:54:21;83.40;;;59.05;;
40555;SDS011;26250;45.422;11.100;2022-12-10T19:56:48;87.30;;;59.80;;
40555;SDS011;26250;45.422;11.100;2022-12-10T19:59:15;85.70;;;59.65;;
40555;SDS011;26250;45.422;11.100;2022-12-10T20:01:44;75.25;;;56.83;;
40555;SDS011;26250;45.422;11.100;2022-12-10T20:04:12;73.25;;;55.97;;
40555;SDS011;26250;45.422;11.100;2022-12-10T20:06:41;68.22;;;54.65;;
40555;SDS011;26250;45.422;11.100;2022-12-10T20:09:19;76.03;;;56.90;;
40555;SDS011;26250;45.422;11.100;2022-12-10T20:11:52;78.43;;;55.85;;
40555;SDS011;26250;45.422;11.100;2022-12-10T20:14:20;73.25;;;56.65;;
40555;SDS011;26250;45.422;11.100;2022-12-10T20:16:48;74.35;;;56.08;;
40555;SDS011;26250;45.422;11.100;2022-12-10T20:19:20;65.38;;;53.38;;
40555;SDS011;26250;45.422;11.100;2022-12-10T20:21:51;72.78;;;56.00;;
40555;SDS011;26250;45.422;11.100;2022-12-10T20:24:19;78.53;;;56.38;;
40555;SDS011;26250;45.422;11.100;2022-12-10T20:26:46;89.53;;;59.97;;
40555;SDS011;26250;45.422;11.100;2022-12-10T20:29:16;73.90;;;57.47;;
40555;SDS011;26250;45.422;11.100;2022-12-10T20:31:45;77.88;;;56.65;;
40555;SDS011;26250;45.422;11.100;2022-12-10T20:34:13;74.28;;;55.35;;
40555;SDS011;26250;45.422;11.100;2022-12-10T20:36:40;75.75;;;55.25;;
40555;SDS011;26250;45.422;11.100;2022-12-10T20:39:17;71.50;;;56.17;;
40555;SDS011;26250;45.422;11.100;2022-12-10T20:41:47;70.97;;;54.08;;
40555;SDS011;26250;45.422;11.100;2022-12-10T20:44:15;75.35;;;56.15;;
40555;SDS011;26250;45.422;11.100;2022-12-10T20:46:43;68.97;;;55.70;;
40555;SDS011;26250;45.422;11.100;2022-12-10T20:49:14;77.47;;;54.67;;
40555;SDS011;26250;45.422;11.100;2022-12-10T20:51:42;74.20;;;55.38;;
40555;SDS011;26250;45.422;11.100;2022-12-10T20:54:09;70.95;;;55.70;;
40555;SDS011;26250;45.422;11.100;2022-12-10T20:56:37;79.80;;;58.08;;
40555;SDS011;26250;45.422;11.100;2022-12-10T20:59:04;91.47;;;63.20;;
40555;SDS011;26250;45.422;11.100;2022-12-10T21:01:32;85.38;;;61.08;;
40555;SDS011;26250;45.422;11.100;2022-12-10T21:03:59;83.57;;;59.03;;
40555;SDS011;26250;45.422;11.100;2022-12-10T21:06:27;73.15;;;53.92;;
40555;SDS011;26250;45.422;11.100;2022-12-10T21:08:58;72.97;;;56.00;;
40555;SDS011;26250;45.422;11.100;2022-12-10T21:11:24;82.53;;;56.17;;
40555;SDS011;26250;45.422;11.100;2022-12-10T21:13:51;78.78;;;58.22;;
40555;SDS011;26250;45.422;11.100;2022-12-10T21:16:21;89.90;;;57.63;;
40555;SDS011;26250;45.422;11.100;2022-12-10T21:18:51;63.67;;;49.78;;
40555;SDS011;26250;45.422;11.100;2022-12-10T21:21:20;72.32;;;51.90;;
40555;SDS011;26250;45.422;11.100;2022-12-10T21:23:49;66.13;;;53.05;;
40555;SDS011;26250;45.422;11.100;2022-12-10T21:26:16;74.03;;;52.28;;
40555;SDS011;26250;45.422;11.100;2022-12-10T21:28:43;73.07;;;55.97;;
40555;SDS011;26250;45.422;11.100;2022-12-10T21:31:14;85.28;;;63.42;;
40555;SDS011;26250;45.422;11.100;2022-12-10T21:33:51;92.32;;;61.60;;
40555;SDS011;26250;45.422;11.100;2022-12-10T21:36:19;95.43;;;60.80;;
40555;SDS011;26250;45.422;11.100;2022-12-10T21:38:47;88.97;;;59.40;;
40555;SDS011;26250;45.422;11.100;2022-12-10T21:41:21;74.50;;;57.08;;
40555;SDS011;26250;45.422;11.100;2022-12-10T21:44:13;70.13;;;55.47;;
40555;SDS011;26250;45.422;11.100;2022-12-10T21:46:41;73.47;;;58.05;;
40555;SDS011;26250;45.422;11.100;2022-12-10T21:49:08;74.68;;;55.65;;
40555;SDS011;26250;45.422;11.100;2022-12-10T21:51:35;73.93;;;55.55;;
40555;SDS011;26250;45.422;11.100;2022-12-10T21:54:06;71.60;;;53.53;;
40555;SDS011;26250;45.422;11.100;2022-12-10T21:56:33;87.00;;;57.05;;
40555;SDS011;26250;45.422;11.100;2022-12-10T21:59:00;77.22;;;57.67;;
40555;SDS011;26250;45.422;11.100;2022-12-10T22:01:27;77.20;;;54.90;;
40555;SDS011;26250;45.422;11.100;2022-12-10T22:03:54;83.63;;;58.03;;
40555;SDS011;26250;45.422;11.100;2022-12-10T22:06:26;76.72;;;56.60;;
40555;SDS011;26250;45.422;11.100;2022-12-10T22:08:53;85.47;;;54.53;;
40555;SDS011;26250;45.422;11.100;2022-12-10T22:11:20;76.18;;;56.00;;
40555;SDS011;26250;45.422;11.100;2022-12-10T22:13:50;74.32;;;55.60;;
40555;SDS011;26250;45.422;11.100;2022-12-10T22:16:18;71.18;;;55.22;;
40555;SDS011;26250;45.422;11.100;2022-12-10T22:18:45;69.47;;;52.53;;
40555;SDS011;26250;45.422;11.100;2022-12-10T22:21:12;81.75;;;56.67;;
40555;SDS011;26250;45.422;11.100;2022-12-10T22:23:40;82.72;;;56.15;;
40555;SDS011;26250;45.422;11.100;2022-12-10T22:26:07;78.57;;;55.30;;
